Time;durP1;ratioP1;P1;durP2;ratioP2;P2;SDS_P1;SDS_P2;PMS_P1;PMS_P2;Temp;Humidity;BMP_temperature;BMP_pressure;BME280_temperature;BME280_humidity;BME280_pressure;Samples;Min_cycle;Max_cycle;Signal;HPM_P1;HPM_P2
2022/10/18 00:00:33;;;;;;;2.07;1.70;;;;;;;;;;5099651;28;20212;-61
2022/10/18 00:03:01;;;;;;;3.23;1.80;;;;;;;;;;5099290;28;20590;-62
2022/10/18 00:05:29;;;;;;;3.23;1.47;;;;;;;;;;5099588;28;20203;-62
2022/10/18 00:07:58;;;;;;;2.87;1.70;;;;;;;;;;5099274;28;20215;-62
2022/10/18 00:10:26;;;;;;;2.87;1.50;;;;;;;;;;5099204;28;20229;-62
2022/10/18 00:12:54;;;;;;;2.40;1.70;;;;;;;;;;5098907;28;20573;-61
2022/10/18 00:15:22;;;;;;;4.13;1.63;;;;;;;;;;5099241;28;20230;-61
2022/10/18 00:17:50;;;;;;;1.80;1.60;;;;;;;;;;5098499;28;20209;-62
2022/10/18 00:20:18;;;;;;;3.30;2.20;;;;;;;;;;5099209;28;20218;-61
2022/10/18 00:22:46;;;;;;;7.77;1.77;;;;;;;;;;5098876;28;20209;-61
2022/10/18 00:25:16;;;;;;;1.90;1.80;;;;;;;;;;5098774;28;20696;-62
2022/10/18 00:27:44;;;;;;;4.17;2.13;;;;;;;;;;5098830;28;20659;-62
2022/10/18 00:30:12;;;;;;;2.33;2.10;;;;;;;;;;5098773;28;20215;-61
2022/10/18 00:32:40;;;;;;;3.00;1.63;;;;;;;;;;5098685;28;20542;-62
2022/10/18 00:35:09;;;;;;;2.40;1.87;;;;;;;;;;5098853;28;20262;-61
2022/10/18 00:37:36;;;;;;;3.63;1.70;;;;;;;;;;5098618;28;20205;-61
2022/10/18 00:40:05;;;;;;;4.63;2.03;;;;;;;;;;5098819;28;20213;-62
2022/10/18 00:42:35;;;;;;;3.00;1.90;;;;;;;;;;5098291;28;20216;-61
2022/10/18 00:45:17;;;;;;;9.20;2.23;;;;;;;;;;5098306;28;20599;-61
2022/10/18 00:47:47;;;;;;;2.13;1.60;;;;;;;;;;5098681;28;20224;-62
2022/10/18 00:50:15;;;;;;;3.03;2.17;;;;;;;;;;5098787;28;20650;-61
2022/10/18 00:52:45;;;;;;;3.27;2.60;;;;;;;;;;5098419;28;20244;-61
2022/10/18 00:55:13;;;;;;;4.30;1.63;;;;;;;;;;5098352;28;20229;-60
2022/10/18 00:57:43;;;;;;;3.13;1.63;;;;;;;;;;5084530;28;20221;-60
2022/10/18 01:00:12;;;;;;;2.30;1.70;;;;;;;;;;5098015;28;20578;-60
2022/10/18 01:02:41;;;;;;;4.60;1.70;;;;;;;;;;5098435;28;20206;-60
2022/10/18 01:05:10;;;;;;;2.83;1.83;;;;;;;;;;5098024;28;20729;-61
2022/10/18 01:07:45;;;;;;;3.87;1.80;;;;;;;;;;5098331;28;20207;-60
2022/10/18 01:10:17;;;;;;;4.17;2.70;;;;;;;;;;5098211;28;20204;-61
2022/10/18 01:12:53;;;;;;;4.40;1.67;;;;;;;;;;5098091;28;20212;-61
2022/10/18 01:15:24;;;;;;;4.57;1.83;;;;;;;;;;5098187;28;20221;-61
2022/10/18 01:17:54;;;;;;;3.53;1.87;;;;;;;;;;5097924;28;20205;-60
2022/10/18 01:20:36;;;;;;;4.70;1.80;;;;;;;;;;5097931;28;20548;-62
2022/10/18 01:23:05;;;;;;;4.10;2.33;;;;;;;;;;5097845;28;20557;-60
2022/10/18 01:25:38;;;;;;;1.63;1.50;;;;;;;;;;5098048;28;20213;-61
2022/10/18 01:28:13;;;;;;;3.30;1.80;;;;;;;;;;5097552;28;20210;-62
2022/10/18 01:30:46;;;;;;;2.10;1.80;;;;;;;;;;5097748;28;20224;-61
2022/10/18 01:33:18;;;;;;;2.90;1.63;;;;;;;;;;5098075;28;20210;-61
2022/10/18 01:35:49;;;;;;;3.07;2.00;;;;;;;;;;5097781;28;20210;-61
2022/10/18 01:38:18;;;;;;;3.17;2.03;;;;;;;;;;5097706;28;20232;-61
2022/10/18 01:40:49;;;;;;;2.17;1.90;;;;;;;;;;5097777;28;20210;-62
2022/10/18 01:43:17;;;;;;;4.20;2.23;;;;;;;;;;5097360;28;20209;-61
2022/10/18 01:45:46;;;;;;;3.57;1.90;;;;;;;;;;5097861;28;20213;-62
2022/10/18 01:48:15;;;;;;;2.60;1.73;;;;;;;;;;5097955;28;20205;-61
2022/10/18 01:50:43;;;;;;;4.40;2.10;;;;;;;;;;5097759;28;20232;-62
2022/10/18 01:53:21;;;;;;;2.80;1.70;;;;;;;;;;5097847;28;20241;-61
2022/10/18 01:55:53;;;;;;;2.10;1.90;;;;;;;;;;5097465;28;20205;-61
2022/10/18 01:58:23;;;;;;;2.37;1.87;;;;;;;;;;5097587;28;20216;-62
2022/10/18 02:00:57;;;;;;;1.77;1.67;;;;;;;;;;5097661;28;20202;-61
2022/10/18 02:03:28;;;;;;;3.13;1.60;;;;;;;;;;5097707;28;20279;-60
2022/10/18 02:05:58;;;;;;;3.13;1.63;;;;;;;;;;5097545;28;20570;-62
2022/10/18 02:08:28;;;;;;;3.50;1.80;;;;;;;;;;5097423;28;20561;-60
2022/10/18 02:10:58;;;;;;;2.57;1.83;;;;;;;;;;5097272;28;20201;-60
2022/10/18 02:13:30;;;;;;;2.53;2.07;;;;;;;;;;5097233;28;20222;-60
2022/10/18 02:16:01;;;;;;;4.30;2.03;;;;;;;;;;5097616;28;20210;-60
2022/10/18 02:18:30;;;;;;;1.90;1.77;;;;;;;;;;5097539;28;20209;-61
2022/10/18 02:20:58;;;;;;;4.50;2.40;;;;;;;;;;5097542;28;20210;-61
2022/10/18 02:23:27;;;;;;;1.87;1.77;;;;;;;;;;5097105;28;20253;-60
2022/10/18 02:25:55;;;;;;;2.47;1.90;;;;;;;;;;5097203;28;20219;-61
2022/10/18 02:28:23;;;;;;;4.60;2.10;;;;;;;;;;5097168;28;20206;-60
2022/10/18 02:31:00;;;;;;;3.40;2.37;;;;;;;;;;5097319;28;20205;-62
2022/10/18 02:33:30;;;;;;;2.93;1.90;;;;;;;;;;5097122;28;20685;-62
2022/10/18 02:36:01;;;;;;;2.90;2.10;;;;;;;;;;5097381;28;20231;-62
2022/10/18 02:38:29;;;;;;;2.90;2.40;;;;;;;;;;5097265;28;20657;-62
2022/10/18 02:40:58;;;;;;;4.53;3.07;;;;;;;;;;5098872;28;20216;-62
2022/10/18 02:43:26;;;;;;;6.53;4.97;;;;;;;;;;5100938;28;20224;-61
2022/10/18 02:45:54;;;;;;;10.17;6.30;;;;;;;;;;5101318;28;20209;-61
2022/10/18 02:48:23;;;;;;;6.37;5.67;;;;;;;;;;5101739;28;20213;-60
2022/10/18 02:50:51;;;;;;;7.20;5.93;;;;;;;;;;5101731;28;20212;-61
2022/10/18 02:53:19;;;;;;;6.47;5.40;;;;;;;;;;5101644;28;20239;-62
2022/10/18 02:55:47;;;;;;;9.47;6.23;;;;;;;;;;5101798;28;20231;-61
2022/10/18 02:58:15;;;;;;;5.37;4.03;;;;;;;;;;5102044;28;20216;-61
2022/10/18 03:00:43;;;;;;;4.27;3.40;;;;;;;;;;5100589;28;20288;-61
2022/10/18 03:03:11;;;;;;;4.40;2.93;;;;;;;;;;5101539;28;20201;-61
2022/10/18 03:05:41;;;;;;;3.60;3.30;;;;;;;;;;5101120;28;20205;-60
2022/10/18 03:08:08;;;;;;;5.20;3.53;;;;;;;;;;5101102;28;20209;-61
2022/10/18 03:10:36;;;;;;;5.67;3.60;;;;;;;;;;5100416;28;20669;-61
2022/10/18 03:13:04;;;;;;;3.17;2.87;;;;;;;;;;5100348;28;20225;-61
2022/10/18 03:15:32;;;;;;;4.10;3.10;;;;;;;;;;5100331;28;20216;-62
2022/10/18 03:18:00;;;;;;;4.43;3.43;;;;;;;;;;5100534;28;20220;-61
2022/10/18 03:20:28;;;;;;;5.57;3.10;;;;;;;;;;5100375;28;20212;-61
2022/10/18 03:22:57;;;;;;;3.07;2.77;;;;;;;;;;5100300;28;20197;-63
2022/10/18 03:25:25;;;;;;;5.77;3.10;;;;;;;;;;5100243;28;20220;-62
2022/10/18 03:27:53;;;;;;;7.53;3.37;;;;;;;;;;5099658;28;20213;-61
2022/10/18 03:30:21;;;;;;;6.40;3.00;;;;;;;;;;5099996;28;20578;-60
2022/10/18 03:32:49;;;;;;;4.57;2.83;;;;;;;;;;5100107;28;20226;-61
2022/10/18 03:35:17;;;;;;;4.67;2.93;;;;;;;;;;5099827;28;20229;-61
2022/10/18 03:37:45;;;;;;;5.90;2.83;;;;;;;;;;5087765;28;20220;-61
2022/10/18 03:40:15;;;;;;;2.37;2.10;;;;;;;;;;5097984;28;20198;-61
2022/10/18 03:42:43;;;;;;;4.93;2.47;;;;;;;;;;5098934;28;20201;-62
2022/10/18 03:45:11;;;;;;;4.73;2.40;;;;;;;;;;5096377;28;20217;-62
2022/10/18 03:47:39;;;;;;;4.20;2.97;;;;;;;;;;5095825;28;20212;-62
2022/10/18 03:50:07;;;;;;;2.63;2.43;;;;;;;;;;5098475;28;20212;-62
2022/10/18 03:52:35;;;;;;;4.83;2.53;;;;;;;;;;5094675;28;20217;-62
2022/10/18 03:55:03;;;;;;;4.40;2.67;;;;;;;;;;5095334;28;20228;-62
2022/10/18 03:57:33;;;;;;;3.97;2.30;;;;;;;;;;5095240;28;20219;-62
2022/10/18 04:00:01;;;;;;;3.50;2.90;;;;;;;;;;5095429;28;20202;-61
2022/10/18 04:02:29;;;;;;;3.93;2.63;;;;;;;;;;5095264;28;20216;-62
2022/10/18 04:04:58;;;;;;;4.67;2.57;;;;;;;;;;5097909;28;20301;-62
2022/10/18 04:07:26;;;;;;;2.23;2.10;;;;;;;;;;5097545;28;20201;-62
2022/10/18 04:09:54;;;;;;;4.73;2.20;;;;;;;;;;5095508;28;20198;-63
2022/10/18 04:12:21;;;;;;;7.10;2.40;;;;;;;;;;5095217;28;20260;-61
2022/10/18 04:14:51;;;;;;;4.77;2.37;;;;;;;;;;5094788;28;20700;-61
2022/10/18 04:17:19;;;;;;;3.87;2.20;;;;;;;;;;5097465;28;20201;-60
2022/10/18 04:19:48;;;;;;;4.33;2.90;;;;;;;;;;5094969;28;20228;-62
2022/10/18 04:22:16;;;;;;;4.30;2.20;;;;;;;;;;5098206;28;20201;-61
2022/10/18 04:24:44;;;;;;;3.37;2.20;;;;;;;;;;5098938;28;20232;-60
2022/10/18 04:27:11;;;;;;;5.27;2.20;;;;;;;;;;5098348;28;20232;-61
2022/10/18 04:29:39;;;;;;;3.37;2.57;;;;;;;;;;5098481;28;20213;-62
2022/10/18 04:32:09;;;;;;;5.53;2.37;;;;;;;;;;5098639;28;20209;-62
2022/10/18 04:34:37;;;;;;;4.43;2.57;;;;;;;;;;5098416;28;20221;-61
2022/10/18 04:37:04;;;;;;;5.37;2.80;;;;;;;;;;5098467;28;20209;-62
2022/10/18 04:39:32;;;;;;;5.90;3.10;;;;;;;;;;5098395;28;20917;-61
2022/10/18 04:42:00;;;;;;;4.77;2.50;;;;;;;;;;5098304;28;20217;-62
2022/10/18 04:44:28;;;;;;;3.13;2.63;;;;;;;;;;5097930;28;20616;-63
2022/10/18 04:46:56;;;;;;;4.10;2.50;;;;;;;;;;5098585;28;20219;-61
2022/10/18 04:49:26;;;;;;;6.60;2.97;;;;;;;;;;5098486;28;20209;-62
2022/10/18 04:51:53;;;;;;;3.57;2.80;;;;;;;;;;5093319;28;20198;-61
2022/10/18 04:54:21;;;;;;;5.77;3.47;;;;;;;;;;5096028;28;20233;-62
2022/10/18 04:56:54;;;;;;;8.93;3.17;;;;;;;;;;5098143;28;20213;-63
2022/10/18 04:59:22;;;;;;;5.33;3.10;;;;;;;;;;5097416;28;20661;-62
2022/10/18 05:01:50;;;;;;;3.80;2.90;;;;;;;;;;5098469;28;20209;-63
2022/10/18 05:04:18;;;;;;;5.27;3.10;;;;;;;;;;5098079;28;20253;-62
2022/10/18 05:06:47;;;;;;;8.53;3.23;;;;;;;;;;5097153;28;20220;-62
2022/10/18 05:09:15;;;;;;;7.23;3.47;;;;;;;;;;5097053;28;20205;-62
2022/10/18 05:11:43;;;;;;;7.03;4.30;;;;;;;;;;5096876;28;20208;-63
2022/10/18 05:14:11;;;;;;;9.67;3.77;;;;;;;;;;5094766;28;20225;-63
2022/10/18 05:16:39;;;;;;;6.13;3.80;;;;;;;;;;5087738;28;20229;-63
2022/10/18 05:19:07;;;;;;;6.07;3.77;;;;;;;;;;5097658;28;20234;-63
2022/10/18 05:21:35;;;;;;;6.20;3.70;;;;;;;;;;5095046;28;20210;-63
2022/10/18 05:24:05;;;;;;;6.83;4.13;;;;;;;;;;5095987;28;20226;-63
2022/10/18 05:26:33;;;;;;;5.17;3.77;;;;;;;;;;5093819;28;20201;-63
2022/10/18 05:29:01;;;;;;;6.90;3.80;;;;;;;;;;5096487;28;20201;-63
2022/10/18 05:31:29;;;;;;;5.30;2.93;;;;;;;;;;5095555;28;20649;-64
2022/10/18 05:33:57;;;;;;;10.70;4.30;;;;;;;;;;5096361;28;20234;-63
2022/10/18 05:36:25;;;;;;;10.40;3.70;;;;;;;;;;5093538;28;20688;-63
2022/10/18 05:38:54;;;;;;;6.00;3.47;;;;;;;;;;5095871;28;20198;-63
2022/10/18 05:41:26;;;;;;;5.47;3.47;;;;;;;;;;5091912;28;20197;-63
2022/10/18 05:43:54;;;;;;;8.17;3.30;;;;;;;;;;5078412;28;20293;-63
2022/10/18 05:46:22;;;;;;;7.17;4.40;;;;;;;;;;5080763;28;20209;-63
2022/10/18 05:48:50;;;;;;;4.93;3.20;;;;;;;;;;5076919;28;20202;-63
2022/10/18 05:51:18;;;;;;;7.63;3.30;;;;;;;;;;5080740;28;20210;-62
2022/10/18 05:53:47;;;;;;;4.20;3.80;;;;;;;;;;5078921;28;20287;-63
2022/10/18 05:56:15;;;;;;;6.97;3.43;;;;;;;;;;5079477;28;20674;-63
2022/10/18 05:58:52;;;;;;;6.53;3.30;;;;;;;;;;5077351;28;20205;-63
2022/10/18 06:01:20;;;;;;;7.97;3.60;;;;;;;;;;5076690;28;20202;-63
2022/10/18 06:03:48;;;;;;;6.33;3.30;;;;;;;;;;5078194;28;20580;-61
2022/10/18 06:06:17;;;;;;;5.30;3.57;;;;;;;;;;5084302;28;20205;-63
2022/10/18 06:08:45;;;;;;;6.47;3.90;;;;;;;;;;5094742;28;20198;-63
2022/10/18 06:11:15;;;;;;;3.90;3.50;;;;;;;;;;5094777;28;20653;-63
2022/10/18 06:13:43;;;;;;;4.93;3.80;;;;;;;;;;5090805;28;20222;-63
2022/10/18 06:16:14;;;;;;;4.93;3.50;;;;;;;;;;5097956;28;20208;-62
2022/10/18 06:18:42;;;;;;;4.50;3.43;;;;;;;;;;5099076;28;20201;-62
2022/10/18 06:21:10;;;;;;;6.20;3.57;;;;;;;;;;5101407;28;20213;-62
2022/10/18 06:23:38;;;;;;;5.17;3.73;;;;;;;;;;5100733;28;20221;-63
2022/10/18 06:26:07;;;;;;;4.80;3.30;;;;;;;;;;5101301;28;20210;-63
2022/10/18 06:28:35;;;;;;;4.87;4.10;;;;;;;;;;5100529;28;20677;-62
2022/10/18 06:31:04;;;;;;;4.50;3.37;;;;;;;;;;5101018;28;20206;-61
2022/10/18 06:33:34;;;;;;;4.30;3.50;;;;;;;;;;5100903;28;20221;-61
2022/10/18 06:36:02;;;;;;;6.60;3.77;;;;;;;;;;5099288;28;20216;-61
2022/10/18 06:38:30;;;;;;;8.43;4.40;;;;;;;;;;5097385;28;20225;-59
2022/10/18 06:40:59;;;;;;;9.03;3.90;;;;;;;;;;5101279;28;20237;-60
2022/10/18 06:43:27;;;;;;;7.17;3.90;;;;;;;;;;5100297;28;20232;-60
2022/10/18 06:45:55;;;;;;;7.10;3.57;;;;;;;;;;5100842;28;20224;-61
2022/10/18 06:48:23;;;;;;;5.03;3.90;;;;;;;;;;5100899;28;20213;-60
2022/10/18 06:50:54;;;;;;;6.67;4.20;;;;;;;;;;5100597;28;20206;-60
2022/10/18 06:53:21;;;;;;;10.43;3.50;;;;;;;;;;5107924;28;20604;-60
2022/10/18 06:55:49;;;;;;;5.53;3.83;;;;;;;;;;5112035;28;20224;-60
2022/10/18 06:58:17;;;;;;;6.97;3.93;;;;;;;;;;5109452;28;20208;-60
2022/10/18 07:00:45;;;;;;;7.77;4.30;;;;;;;;;;5109309;28;20193;-61
2022/10/18 07:03:13;;;;;;;5.63;3.80;;;;;;;;;;5109303;27;20193;-60
2022/10/18 07:05:41;;;;;;;7.03;3.87;;;;;;;;;;5111775;27;20531;-60
2022/10/18 07:08:10;;;;;;;8.87;4.10;;;;;;;;;;5110254;28;20205;-60
2022/10/18 07:10:38;;;;;;;6.57;3.77;;;;;;;;;;5108545;28;20647;-60
2022/10/18 07:13:06;;;;;;;7.87;4.40;;;;;;;;;;5108996;28;20218;-60
2022/10/18 07:16:02;;;;;;;5.60;3.87;;;;;;;;;;5101845;28;20274;-60
2022/10/18 07:18:30;;;;;;;8.13;4.23;;;;;;;;;;5106326;28;20193;-60
2022/10/18 07:21:00;;;;;;;7.40;3.70;;;;;;;;;;5108816;27;20201;-60
2022/10/18 07:23:31;;;;;;;7.57;4.37;;;;;;;;;;5099854;28;20230;-60
2022/10/18 07:25:59;;;;;;;7.17;4.43;;;;;;;;;;5100022;28;20221;-60
2022/10/18 07:28:28;;;;;;;7.33;4.27;;;;;;;;;;5099746;28;20206;-60
2022/10/18 07:30:56;;;;;;;12.73;4.47;;;;;;;;;;5099731;28;20212;-60
2022/10/18 07:33:28;;;;;;;9.33;5.03;;;;;;;;;;5099867;28;20316;-60
2022/10/18 07:36:00;;;;;;;10.73;4.30;;;;;;;;;;5105356;28;20217;-60
2022/10/18 07:38:28;;;;;;;12.17;4.40;;;;;;;;;;5106251;28;20227;-63
2022/10/18 07:40:57;;;;;;;11.00;4.20;;;;;;;;;;5108952;28;20204;-60
2022/10/18 07:43:26;;;;;;;10.73;4.13;;;;;;;;;;5108115;28;20229;-59
2022/10/18 07:45:54;;;;;;;9.13;4.20;;;;;;;;;;5108411;27;20210;-61
2022/10/18 07:48:22;;;;;;;7.53;4.27;;;;;;;;;;5110650;28;20219;-60
2022/10/18 07:50:50;;;;;;;6.03;4.20;;;;;;;;;;5106754;28;20193;-59
2022/10/18 07:53:18;;;;;;;6.97;4.63;;;;;;;;;;5110382;28;20268;-59
2022/10/18 07:55:46;;;;;;;7.70;4.83;;;;;;;;;;5109889;28;20220;-60
2022/10/18 07:58:15;;;;;;;9.73;4.80;;;;;;;;;;5100174;28;20202;-59
2022/10/18 08:00:43;;;;;;;9.87;5.10;;;;;;;;;;5101074;28;20205;-60
2022/10/18 08:03:11;;;;;;;7.93;4.03;;;;;;;;;;5093628;28;20204;-60
2022/10/18 08:05:39;;;;;;;6.37;3.70;;;;;;;;;;5098690;28;20189;-59
2022/10/18 08:08:07;;;;;;;8.97;3.90;;;;;;;;;;5097950;28;20204;-59
2022/10/18 08:10:35;;;;;;;7.80;3.63;;;;;;;;;;5097981;28;20202;-60
2022/10/18 08:13:03;;;;;;;4.17;3.13;;;;;;;;;;5098081;28;20198;-60
2022/10/18 08:15:32;;;;;;;9.53;4.13;;;;;;;;;;5097272;28;20303;-59
2022/10/18 08:18:00;;;;;;;9.50;4.20;;;;;;;;;;5096196;28;20205;-61
2022/10/18 08:20:29;;;;;;;9.67;4.53;;;;;;;;;;5098797;28;20210;-59
2022/10/18 08:22:58;;;;;;;8.13;4.40;;;;;;;;;;5098411;28;20251;-59
2022/10/18 08:25:27;;;;;;;7.07;4.40;;;;;;;;;;5096734;28;20231;-60
2022/10/18 08:27:55;;;;;;;10.17;4.27;;;;;;;;;;5098461;28;20241;-60
2022/10/18 08:30:23;;;;;;;8.97;4.13;;;;;;;;;;5098594;28;20209;-60
2022/10/18 08:32:53;;;;;;;9.67;4.27;;;;;;;;;;5098382;28;20198;-59
2022/10/18 08:35:21;;;;;;;9.03;4.97;;;;;;;;;;5095670;28;20223;-59
2022/10/18 08:37:50;;;;;;;12.47;4.47;;;;;;;;;;5100929;28;20204;-59
2022/10/18 08:40:19;;;;;;;6.67;4.60;;;;;;;;;;5108300;28;20545;-60
2022/10/18 08:42:53;;;;;;;7.90;4.17;;;;;;;;;;5109278;28;20673;-61
2022/10/18 08:45:21;;;;;;;5.47;4.10;;;;;;;;;;5098391;28;20232;-61
2022/10/18 08:48:16;;;;;;;7.13;3.60;;;;;;;;;;5097470;28;20662;-60
2022/10/18 08:50:44;;;;;;;9.03;3.23;;;;;;;;;;5097614;28;20201;-61
2022/10/18 08:53:15;;;;;;;8.20;3.57;;;;;;;;;;5094951;28;20336;-61
2022/10/18 08:55:44;;;;;;;8.03;3.40;;;;;;;;;;5101759;28;20217;-60
2022/10/18 08:58:17;;;;;;;4.27;3.53;;;;;;;;;;5107912;28;20200;-61
2022/10/18 09:00:50;;;;;;;3.23;2.90;;;;;;;;;;5109103;28;20201;-60
2022/10/18 09:03:26;;;;;;;4.70;3.10;;;;;;;;;;5107422;28;20276;-60
2022/10/18 09:05:55;;;;;;;9.43;3.20;;;;;;;;;;5104624;28;20630;-60
2022/10/18 09:08:31;;;;;;;8.77;3.60;;;;;;;;;;5105746;28;20204;-59
2022/10/18 09:11:04;;;;;;;5.30;3.13;;;;;;;;;;5101502;28;20201;-60
2022/10/18 09:13:41;;;;;;;8.67;3.50;;;;;;;;;;5101816;28;20221;-63
2022/10/18 09:16:11;;;;;;;5.93;3.03;;;;;;;;;;5106386;28;20240;-60
2022/10/18 09:18:50;;;;;;;3.40;2.80;;;;;;;;;;5099503;28;20206;-60
2022/10/18 09:21:19;;;;;;;4.50;3.03;;;;;;;;;;5098085;28;20201;-60
2022/10/18 09:23:48;;;;;;;4.67;3.53;;;;;;;;;;5097924;28;20997;-60
2022/10/18 09:26:18;;;;;;;8.90;4.00;;;;;;;;;;5098117;28;20206;-60
2022/10/18 09:28:59;;;;;;;5.40;3.10;;;;;;;;;;5097884;28;20201;-59
2022/10/18 09:31:31;;;;;;;6.90;3.60;;;;;;;;;;5097851;28;20207;-60
2022/10/18 09:34:03;;;;;;;5.80;3.63;;;;;;;;;;5088280;28;20233;-61
2022/10/18 09:36:34;;;;;;;4.63;2.87;;;;;;;;;;5097747;28;20229;-61
2022/10/18 09:39:03;;;;;;;4.50;3.20;;;;;;;;;;5105278;28;20207;-61
2022/10/18 09:41:34;;;;;;;3.93;3.13;;;;;;;;;;5108281;28;20194;-61
2022/10/18 09:44:05;;;;;;;6.37;3.00;;;;;;;;;;5105803;28;20224;-61
2022/10/18 09:46:36;;;;;;;7.13;4.00;;;;;;;;;;5107306;28;20202;-61
2022/10/18 09:49:07;;;;;;;7.23;3.50;;;;;;;;;;5097881;28;20213;-61
2022/10/18 09:51:42;;;;;;;4.83;3.70;;;;;;;;;;5100027;28;20665;-60
2022/10/18 09:54:17;;;;;;;8.50;3.47;;;;;;;;;;5099097;28;20608;-59
2022/10/18 09:56:47;;;;;;;4.47;2.83;;;;;;;;;;5101857;28;20222;-59
2022/10/18 09:59:25;;;;;;;5.03;3.40;;;;;;;;;;5101315;28;20209;-60
2022/10/18 10:01:53;;;;;;;3.37;3.07;;;;;;;;;;5101690;28;20203;-61
2022/10/18 10:04:23;;;;;;;6.63;3.40;;;;;;;;;;5101483;28;20223;-61
2022/10/18 10:06:51;;;;;;;8.57;3.53;;;;;;;;;;5101324;28;20202;-61
2022/10/18 10:09:24;;;;;;;5.77;2.83;;;;;;;;;;5101314;28;20212;-60
2022/10/18 10:11:54;;;;;;;3.63;3.33;;;;;;;;;;5101290;28;20227;-61
2022/10/18 10:14:24;;;;;;;5.80;3.63;;;;;;;;;;5100910;28;20710;-61
2022/10/18 10:16:53;;;;;;;4.53;2.93;;;;;;;;;;5101181;28;20220;-60
2022/10/18 10:19:28;;;;;;;5.27;3.27;;;;;;;;;;5101106;28;20673;-60
2022/10/18 10:22:00;;;;;;;4.17;2.97;;;;;;;;;;5101146;28;20208;-61
2022/10/18 10:24:33;;;;;;;4.97;3.20;;;;;;;;;;5101060;28;20230;-60
2022/10/18 10:27:03;;;;;;;4.97;3.07;;;;;;;;;;5101269;28;20209;-60
2022/10/18 10:29:52;;;;;;;4.20;3.10;;;;;;;;;;5098806;28;20213;-60
2022/10/18 10:32:21;;;;;;;4.43;3.00;;;;;;;;;;5087492;28;20220;-60
2022/10/18 10:34:50;;;;;;;5.20;2.73;;;;;;;;;;5100774;28;20229;-60
2022/10/18 10:37:29;;;;;;;5.87;2.63;;;;;;;;;;5101239;28;20225;-60
2022/10/18 10:40:13;;;;;;;4.00;2.67;;;;;;;;;;5100628;28;20216;-60
2022/10/18 10:42:54;;;;;;;5.70;3.70;;;;;;;;;;5097576;28;20739;-60
2022/10/18 10:45:41;;;;;;;7.90;3.27;;;;;;;;;;5100628;28;20205;-60
2022/10/18 10:48:14;;;;;;;5.17;2.63;;;;;;;;;;5100865;28;20215;-60
2022/10/18 10:50:55;;;;;;;6.73;3.13;;;;;;;;;;5100656;28;20670;-59
2022/10/18 10:53:40;;;;;;;4.93;2.80;;;;;;;;;;5100827;28;20242;-59
2022/10/18 10:56:15;;;;;;;4.27;2.20;;;;;;;;;;5107243;28;20686;-59
2022/10/18 10:58:43;;;;;;;6.03;2.93;;;;;;;;;;5109615;28;20201;-60
2022/10/18 11:01:26;;;;;;;4.27;2.90;;;;;;;;;;5109879;28;20229;-61
2022/10/18 11:03:55;;;;;;;4.87;2.23;;;;;;;;;;5097346;28;20229;-60
2022/10/18 11:06:34;;;;;;;3.97;3.50;;;;;;;;;;5102034;28;20193;-59
2022/10/18 11:09:05;;;;;;;3.57;2.50;;;;;;;;;;5098535;28;20216;-60
2022/10/18 11:11:36;;;;;;;3.47;2.60;;;;;;;;;;5098951;28;20598;-59
2022/10/18 11:14:05;;;;;;;4.67;3.30;;;;;;;;;;5098915;28;20224;-60
2022/10/18 11:16:56;;;;;;;8.27;3.00;;;;;;;;;;5097777;28;20219;-62
2022/10/18 11:19:29;;;;;;;3.83;2.43;;;;;;;;;;5096740;28;20209;-63
2022/10/18 11:21:59;;;;;;;3.20;2.60;;;;;;;;;;5098518;28;20567;-62
2022/10/18 11:24:27;;;;;;;3.37;2.63;;;;;;;;;;5105142;28;20619;-62
2022/10/18 11:26:58;;;;;;;3.00;2.47;;;;;;;;;;5109421;28;20198;-62
2022/10/18 11:29:33;;;;;;;3.07;2.67;;;;;;;;;;5106561;28;20204;-62
2022/10/18 11:32:05;;;;;;;3.30;3.00;;;;;;;;;;5096749;28;20209;-62
2022/10/18 11:34:42;;;;;;;4.70;2.80;;;;;;;;;;5106971;28;20221;-63
2022/10/18 11:37:17;;;;;;;2.90;2.40;;;;;;;;;;5109440;28;20227;-62
2022/10/18 11:40:11;;;;;;;3.00;2.70;;;;;;;;;;5107457;28;20257;-64
2022/10/18 11:42:42;;;;;;;3.50;2.30;;;;;;;;;;5099435;28;20218;-63
2022/10/18 11:45:19;;;;;;;3.33;2.33;;;;;;;;;;5099777;28;20233;-63
2022/10/18 11:47:49;;;;;;;2.57;2.20;;;;;;;;;;5099705;28;20201;-64
2022/10/18 11:50:26;;;;;;;10.43;2.60;;;;;;;;;;5099900;28;20209;-62
2022/10/18 11:52:59;;;;;;;5.13;2.40;;;;;;;;;;5099358;28;20241;-63
2022/10/18 11:55:31;;;;;;;2.50;1.90;;;;;;;;;;5099602;28;20205;-64
2022/10/18 11:58:03;;;;;;;6.67;2.50;;;;;;;;;;5099436;28;20228;-63
2022/10/18 12:00:39;;;;;;;2.40;2.20;;;;;;;;;;5099336;28;20578;-62
2022/10/18 12:03:13;;;;;;;5.30;2.03;;;;;;;;;;5099218;28;20214;-63
2022/10/18 12:05:43;;;;;;;1.87;1.57;;;;;;;;;;5099454;28;20208;-64
2022/10/18 12:08:14;;;;;;;1.67;1.57;;;;;;;;;;5099491;28;20204;-64
2022/10/18 12:10:43;;;;;;;3.60;2.10;;;;;;;;;;5099259;28;20208;-64
2022/10/18 12:13:35;;;;;;;3.63;2.10;;;;;;;;;;5097951;28;20232;-64
2022/10/18 12:16:05;;;;;;;5.80;1.63;;;;;;;;;;5099328;28;20226;-64
2022/10/18 12:18:34;;;;;;;1.57;1.43;;;;;;;;;;5099093;28;20231;-64
2022/10/18 12:21:02;;;;;;;3.67;1.57;;;;;;;;;;5099023;28;20579;-64
2022/10/18 12:23:34;;;;;;;2.10;1.67;;;;;;;;;;5098965;28;20253;-64
2022/10/18 12:26:04;;;;;;;2.43;1.73;;;;;;;;;;5098794;28;20594;-64
2022/10/18 12:28:37;;;;;;;2.57;2.10;;;;;;;;;;5098605;28;20204;-64
2022/10/18 12:31:08;;;;;;;1.97;1.80;;;;;;;;;;5098695;28;20665;-63
2022/10/18 12:33:38;;;;;;;1.73;1.50;;;;;;;;;;5098890;28;20231;-64
2022/10/18 12:36:11;;;;;;;6.03;1.90;;;;;;;;;;5098576;28;20657;-63
2022/10/18 12:38:42;;;;;;;4.27;2.00;;;;;;;;;;5098803;28;20241;-64
2022/10/18 12:41:16;;;;;;;1.70;1.60;;;;;;;;;;5098635;28;20203;-62
2022/10/18 12:43:50;;;;;;;2.27;1.50;;;;;;;;;;5098465;28;20222;-63
2022/10/18 12:46:18;;;;;;;6.57;2.23;;;;;;;;;;5097118;28;20212;-64
2022/10/18 12:48:50;;;;;;;1.60;1.40;;;;;;;;;;5108348;28;20217;-64
2022/10/18 12:51:19;;;;;;;3.70;1.23;;;;;;;;;;5108783;28;20214;-64
2022/10/18 12:53:53;;;;;;;3.47;1.70;;;;;;;;;;5098006;28;20290;-64
2022/10/18 12:56:36;;;;;;;4.43;1.50;;;;;;;;;;5098427;28;20215;-65
2022/10/18 12:59:25;;;;;;;3.43;1.50;;;;;;;;;;5098106;28;20241;-65
2022/10/18 13:02:09;;;;;;;1.73;1.33;;;;;;;;;;5098158;28;20678;-64
2022/10/18 13:04:37;;;;;;;2.13;1.20;;;;;;;;;;5098364;28;20232;-65
2022/10/18 13:07:18;;;;;;;2.47;1.73;;;;;;;;;;5098217;28;20200;-64
2022/10/18 13:10:01;;;;;;;2.63;1.47;;;;;;;;;;5098398;28;20208;-65
2022/10/18 13:12:49;;;;;;;3.20;1.20;;;;;;;;;;5106426;28;20215;-63
2022/10/18 13:15:26;;;;;;;2.83;1.20;;;;;;;;;;5104411;28;20224;-63
2022/10/18 13:18:01;;;;;;;3.87;1.53;;;;;;;;;;5105164;28;20255;-64
2022/10/18 13:20:34;;;;;;;1.70;1.13;;;;;;;;;;5107912;28;20241;-64
2022/10/18 13:23:07;;;;;;;1.87;1.20;;;;;;;;;;5104690;28;20276;-64
2022/10/18 13:25:40;;;;;;;1.43;1.33;;;;;;;;;;5104863;28;20197;-63
2022/10/18 13:28:19;;;;;;;1.60;1.50;;;;;;;;;;5102003;28;20211;-64
2022/10/18 13:30:51;;;;;;;2.03;1.50;;;;;;;;;;5098314;28;20203;-63
2022/10/18 13:33:26;;;;;;;1.40;1.27;;;;;;;;;;5097576;28;20232;-63
2022/10/18 13:35:56;;;;;;;2.07;1.57;;;;;;;;;;5097896;28;20209;-64
2022/10/18 13:38:41;;;;;;;3.80;1.80;;;;;;;;;;5097866;28;20243;-64
2022/10/18 13:41:10;;;;;;;2.17;1.50;;;;;;;;;;5097553;28;20219;-64
2022/10/18 13:43:57;;;;;;;5.67;1.57;;;;;;;;;;5097313;28;20595;-64
2022/10/18 13:46:45;;;;;;;2.60;1.57;;;;;;;;;;5097795;28;20211;-65
2022/10/18 13:49:24;;;;;;;1.50;1.40;;;;;;;;;;5097373;28;20578;-64
2022/10/18 13:52:00;;;;;;;5.53;1.67;;;;;;;;;;5097541;28;20212;-64
2022/10/18 13:54:38;;;;;;;1.83;1.47;;;;;;;;;;5097323;28;20297;-63
2022/10/18 13:57:28;;;;;;;1.47;1.30;;;;;;;;;;5097238;28;20201;-63
2022/10/18 14:00:08;;;;;;;2.73;1.30;;;;;;;;;;5097667;28;20290;-63
2022/10/18 14:02:56;;;;;;;1.30;1.20;;;;;;;;;;5097616;28;20212;-64
2022/10/18 14:05:47;;;;;;;1.33;1.23;;;;;;;;;;5093658;28;20291;-64
2022/10/18 14:08:17;;;;;;;1.60;1.30;;;;;;;;;;5092868;28;20303;-63
2022/10/18 14:10:50;;;;;;;1.93;1.70;;;;;;;;;;5097438;28;20210;-64
2022/10/18 14:13:31;;;;;;;4.03;1.80;;;;;;;;;;5096914;28;20236;-64
2022/10/18 14:16:04;;;;;;;2.50;1.37;;;;;;;;;;5096824;28;20209;-64
2022/10/18 14:18:33;;;;;;;3.33;1.50;;;;;;;;;;5096295;28;20221;-63
2022/10/18 14:21:04;;;;;;;3.53;1.60;;;;;;;;;;5097275;28;20287;-64
2022/10/18 14:23:43;;;;;;;1.80;1.50;;;;;;;;;;5097184;28;20321;-64
2022/10/18 14:26:13;;;;;;;2.13;1.40;;;;;;;;;;5097359;28;20308;-63
2022/10/18 14:28:41;;;;;;;2.87;1.80;;;;;;;;;;5097063;28;20202;-64
2022/10/18 14:31:28;;;;;;;2.87;1.70;;;;;;;;;;5097376;28;20205;-64
2022/10/18 14:33:57;;;;;;;2.10;1.70;;;;;;;;;;5097090;28;20587;-64
2022/10/18 14:36:26;;;;;;;4.50;2.20;;;;;;;;;;5098170;28;20235;-64
2022/10/18 14:38:55;;;;;;;7.93;2.73;;;;;;;;;;5101272;28;20224;-64
2022/10/18 14:41:24;;;;;;;6.13;2.73;;;;;;;;;;5100625;28;20227;-64
2022/10/18 14:43:53;;;;;;;8.10;2.57;;;;;;;;;;5100587;28;20264;-64
2022/10/18 14:46:24;;;;;;;1.80;1.50;;;;;;;;;;5101123;28;20209;-64
2022/10/18 14:48:58;;;;;;;2.70;1.63;;;;;;;;;;5100698;28;20236;-63
2022/10/18 14:51:26;;;;;;;2.67;1.77;;;;;;;;;;5100715;28;20205;-64
2022/10/18 14:53:54;;;;;;;2.83;1.70;;;;;;;;;;5100649;28;20246;-64
2022/10/18 14:56:25;;;;;;;2.10;1.50;;;;;;;;;;5100496;28;20233;-63
2022/10/18 14:58:53;;;;;;;4.10;1.57;;;;;;;;;;5100192;28;20236;-64
2022/10/18 15:01:24;;;;;;;3.00;1.43;;;;;;;;;;5100378;28;20669;-63
2022/10/18 15:03:55;;;;;;;2.80;1.60;;;;;;;;;;5100556;28;20225;-63
2022/10/18 15:06:25;;;;;;;3.43;1.63;;;;;;;;;;5100715;28;20209;-63